Flight Track Log - Related Links

Times and Time Zones

All times are in EDT time to prevent confusion due to time zone crossing. See the DAL268 flight status page for this flight to view local times or setup timezone preferences in your user account.

Time Position Orientation Groundspeed Altitude Reporting Facility
EDT Latitude Longitude Course Direction KTS MPH feet Rate Location/Type
Sat 06:28:19 PM 33.6333 -84.4833 64° Northeast 192 221 2,700  Level Atlanta TRACON
Sat 06:29:19 PM 33.6000 -84.5500 239° Southwest 220 253 4,600 1,850 Climbing Atlanta TRACON
Sat 06:30:00 PM 33.8204 -84.1876 73° East  Level Estimated
Sat 06:30:19 PM 33.5500 -84.5833 209° Southwest 258 297 6,400  Level Atlanta TRACON
Sat 06:31:00 PM 33.8815 -84.1072 101° East  Level Estimated
Sat 06:32:00 PM 33.8157 -83.9923 125° Southeast  Level FlightAware Approximate
Sat 06:32:44 PM 33.4533 -84.4272 127° Southeast 286 329 10,900  Level Atlanta Center
Sat 06:33:00 PM 33.8947 -83.8902 101° East  Level Estimated
Sat 06:33:44 PM 33.4558 -84.3078 89° East 322 371 13,200  Level Atlanta Center
Sat 06:34:00 PM 33.9737 -83.7878 64° Northeast  Level Estimated
Sat 06:34:44 PM 33.4894 -84.1958 70° East 343 395 15,200  Level Atlanta Center
Sat 06:35:44 PM 33.5397 -84.0836 62° Northeast 356 410 16,100 1,200 Climbing Atlanta Center
Sat 06:36:44 PM 33.5917 -83.9564 64° Northeast 397 457 17,600 1,600 Climbing Atlanta Center
Sat 06:37:44 PM 33.6250 -83.8167 74° East 428 493 19,300 1,650 Climbing Atlanta Center
Sat 06:38:44 PM 33.6539 -83.6719 76° East 442 509 20,900 1,500 Climbing Atlanta Center
Sat 06:39:44 PM 33.7033 -83.5294 67° East 449 517 22,300 1,350 Climbing Atlanta Center
Sat 06:40:44 PM 33.7592 -83.3917 64° Northeast 454 522 23,600 1,250 Climbing Atlanta Center
Sat 06:41:44 PM 33.8147 -83.2486 65° Northeast 459 528 24,800 1,200 Climbing Atlanta Center
Sat 06:42:44 PM 33.8681 -83.1206 63° Northeast 465 535 26,000 1,250 Climbing Atlanta Center
Sat 06:43:44 PM 33.9233 -82.9800 65° Northeast 465 535 27,300 1,300 Climbing Atlanta Center
Sat 06:44:44 PM 33.9825 -82.8364 64° Northeast 471 542 28,600 1,200 Climbing Atlanta Center
Sat 06:45:44 PM 34.0372 -82.6950 65° Northeast 466 536 29,700 1,050 Climbing Atlanta Center
Sat 06:46:44 PM 34.0961 -82.5539 63° Northeast 466 536 30,700 850 Climbing Atlanta Center
Sat 06:47:44 PM 34.1547 -82.4019 65° Northeast 459 528 31,400 750 Climbing Atlanta Center
Sat 06:48:44 PM 34.2114 -82.2578 65° Northeast 459 528 32,200 700 Climbing Atlanta Center
Sat 06:49:44 PM 34.2697 -82.1158 64° Northeast 459 528 32,800 400 Climbing Atlanta Center
Sat 06:50:44 PM 34.3364 -81.9836 59° Northeast 465 535 33,000 100 Climbing Atlanta Center
Sat 06:51:44 PM 34.4050 -81.8458 59° Northeast 465 535 33,000  Level Atlanta Center
Sat 06:52:44 PM 34.4753 -81.7031 59° Northeast 478 550 33,000  Level Atlanta Center
Sat 06:53:44 PM 34.5436 -81.5650 59° Northeast 478 550 33,000  Level Atlanta Center
Sat 06:54:44 PM 34.6117 -81.4242 60° Northeast 478 550 33,000  Level Atlanta Center
Sat 06:55:44 PM 34.6717 -81.3036 59° Northeast 471 542 33,000  Level Atlanta Center
Sat 06:56:44 PM 34.7394 -81.1622 60° Northeast 477 549 33,000  Level Atlanta Center
Sat 06:57:44 PM 34.8131 -81.0131 59° Northeast 476 548 33,000  Level Atlanta Center
Sat 06:58:44 PM 34.8806 -80.8764 59° Northeast 483 556 33,000  Level Atlanta Center
Sat 06:59:44 PM 34.9497 -80.7344 59° Northeast 478 550 33,000  Level Atlanta Center
Sat 07:00:44 PM 35.0169 -80.5947 60° Northeast 478 550 33,000  Level Atlanta Center
Sat 07:03:09 PM 35.1714 -80.2697 60° Northeast 488 562 33,000  Level Washington Center
Sat 07:04:09 PM 35.2397 -80.1264 60° Northeast 483 556 33,000  Level Washington Center
Sat 07:05:08 PM 35.3094 -79.9878 58° Northeast 478 550 33,000  Level Washington Center
Sat 07:06:09 PM 35.3753 -79.8461 60° Northeast 478 550 33,000  Level Washington Center
Sat 07:07:07 PM 35.4428 -79.7069 59° Northeast 473 544 33,000  Level Washington Center
Sat 07:08:09 PM 35.5100 -79.5650 60° Northeast 473 544 33,000  Level Washington Center
Sat 07:09:09 PM 35.5775 -79.4203 60° Northeast 473 544 33,000  Level Washington Center
Sat 07:10:09 PM 35.6447 -79.2725 61° Northeast 473 544 33,000  Level Washington Center
Sat 07:11:09 PM 35.7156 -79.1325 58° Northeast 473 544 33,000  Level Washington Center
Sat 07:12:08 PM 35.7822 -78.9897 60° Northeast 473 544 33,000  Level Washington Center
Sat 07:13:09 PM 35.8511 -78.8414 60° Northeast 473 544 33,000  Level Washington Center
Sat 07:14:07 PM 35.8886 -78.6867 73° East 473 544 33,000  Level Washington Center
Sat 07:15:08 PM 35.9033 -78.5178 84° East 473 544 33,000  Level Washington Center
Sat 07:16:07 PM 35.9197 -78.3517 83° East 484 557 33,000  Level Washington Center
Sat 07:17:09 PM 35.9361 -78.1881 83° East 484 557 33,000  Level Washington Center
Sat 07:18:07 PM 35.9500 -78.0217 84° East 479 551 33,000  Level Washington Center
Sat 07:19:08 PM 35.9678 -77.8556 82° East 479 551 33,000  Level Washington Center
Sat 07:20:08 PM 35.9919 -77.6792 80° East 479 551 33,000  Level Washington Center
Sat 07:21:09 PM 36.0711 -77.5553 52° Northeast 474 545 33,000  Level Washington Center
Sat 07:22:07 PM 36.1525 -77.4261 52° Northeast 474 545 33,000  Level Washington Center
Sat 07:23:07 PM 36.2358 -77.2839 54° Northeast 469 540 33,000  Level Washington Center
Sat 07:24:08 PM 36.3336 -77.1675 44° Northeast 474 545 33,000  Level Washington Center
Sat 07:25:09 PM 36.4264 -77.0736 39° Northeast 468 539 33,000  Level Washington Center
Sat 07:26:07 PM 36.5406 -76.9622 38° Northeast 468 539 33,000  Level Washington Center
Sat 07:27:09 PM 36.6417 -76.8578 40° Northeast 474 545 33,000  Level Washington Center
Sat 07:28:09 PM 36.7367 -76.7661 38° Northeast 474 545 33,000  Level Washington Center
Sat 07:29:09 PM 36.8419 -76.6664 37° Northeast 474 545 33,000  Level Washington Center
Sat 07:30:08 PM 36.9469 -76.5639 38° Northeast 474 545 33,000  Level Washington Center
Sat 07:31:08 PM 37.0478 -76.4636 38° Northeast 469 540 33,000  Level Washington Center
Sat 07:32:09 PM 37.1467 -76.3683 38° Northeast 464 534 33,000  Level Washington Center
Sat 07:33:10 PM 37.2556 -76.2781 33° Northeast 464 534 33,000  Level Washington Center
Sat 07:34:08 PM 37.3625 -76.1928 32° Northeast 458 527 33,000  Level Washington Center
Sat 07:35:07 PM 37.4756 -76.1125 29° Northeast 458 527 33,000  Level Washington Center
Sat 07:36:08 PM 37.5906 -76.0217 32° Northeast 447 514 33,000  Level Washington Center
Sat 07:37:08 PM 37.6950 -75.9383 32° Northeast 447 514 33,000  Level Washington Center
Sat 07:38:09 PM 37.7975 -75.8494 34° Northeast 447 514 33,000  Level Washington Center
Sat 07:39:07 PM 37.9061 -75.7733 29° Northeast 447 514 33,000  Level Washington Center
Sat 07:40:07 PM 38.0106 -75.6919 32° Northeast 442 509 33,000  Level Washington Center
Sat 07:41:08 PM 38.1064 -75.6022 36° Northeast 437 503 33,000  Level Washington Center
Sat 07:42:09 PM 38.2128 -75.5178 32° Northeast 437 503 33,000  Level Washington Center
Sat 07:43:07 PM 38.3169 -75.4408 30° Northeast 432 497 33,000  Level Washington Center
Sat 07:44:09 PM 38.4106 -75.3692 31° Northeast 432 497 33,000  Level Washington Center
Sat 07:45:07 PM 38.5147 -75.2867 32° Northeast 427 491 33,000  Level Washington Center
Sat 07:46:08 PM 38.6167 -75.2039 32° Northeast 427 491 33,000 -950 Level Washington Center
Sat 07:47:07 PM 38.7183 -75.1208 33° Northeast 427 491 31,100 -2,500 Descending Washington Center
Sat 07:48:08 PM 38.8286 -75.0347 31° Northeast 439 505 28,000 -2,016 Descending Washington Center
Sat 07:49:09 PM 38.9364 -74.9406 34° Northeast 452 520 27,000 -655 Descending Washington Center
Sat 07:50:07 PM 39.0506 -74.8458 33° Northeast 466 536 26,700 -1,258 Descending Washington Center
Sat 07:52:15 PM 39.2689 -74.6217 38° Northeast 484 557 23,100 -1,810 Descending New York Center
Sat 07:53:16 PM 39.3683 -74.5144 40° Northeast 466 536 21,000 -1,672 Descending New York Center
Sat 07:54:17 PM 39.4633 -74.4117 40° Northeast 452 520 19,700 -1,240 Descending New York Center
Sat 07:55:17 PM 39.5561 -74.3061 41° Northeast 440 506 18,500 -1,068 Descending New York Center
Sat 07:56:15 PM 39.6575 -74.1953 40° Northeast 440 506 17,600 -1,311 Descending New York Center
Sat 07:57:16 PM 39.7458 -74.0969 41° Northeast 422 486 15,900 -1,636 Descending New York Center
Sat 07:58:16 PM 39.8317 -74.0011 41° Northeast 417 480 14,300 -1,450 Descending New York Center
Sat 07:59:16 PM 39.9128 -73.9400 30° Northeast 388 447 13,000 -1,300 Descending New York Center
Sat 08:00:16 PM 40.0019 -73.8764 29° Northeast 364 419 11,700 -1,400 Descending New York Center
Sat 08:01:16 PM 40.0850 -73.8122 31° Northeast 322 371 10,200 -1,600 Descending New York Center
Sat 08:02:16 PM 40.1386 -73.7522 41° Northeast 296 341 8,500 -2,194 Descending New York Center
Sat 08:02:49 PM 40.1833 -73.7500 North 284 327 6,800 -2,483 Descending New York TRACON
Sat 08:03:43 PM 40.2333 -73.8167 315° West 265 305 4,900 -1,421 Descending New York TRACON
Sat 08:04:43 PM 40.2833 -73.8833 315° West 277 319 4,100 -968 Descending New York TRACON
Sat 08:05:16 PM 40.3031 -73.9144 310° West 264 304 3,400 -717 Descending New York Center
Sat 08:06:15 PM 40.3708 -73.9528 337° Northwest 248 285 3,000 -276 Descending New York Center
Sat 08:06:43 PM 40.4000 -73.9500 North 226 260 3,000  Level New York TRACON
Sat 08:07:37 PM 40.4500 -73.9667 346° North 202 232 3,000  Level New York TRACON
Sat 08:08:43 PM 40.5167 -73.9667 360° North 203 234 3,000 -238 Level New York TRACON
Sat 08:09:43 PM 40.5667 -73.9333 27° Northeast 200 230 2,500 -500 Descending New York TRACON

Login

Don't have an account? Register now (free) for customized features, flight alerts, and more!